createdAt,value
2017-08-09T00:02:21.037Z,100439.31
2017-08-09T00:04:47.591Z,100437.23
2017-08-09T00:07:13.985Z,100429.55
2017-08-09T00:09:40.897Z,100435.11
2017-08-09T00:12:07.814Z,100430.28
2017-08-09T00:14:34.865Z,100437.42
2017-08-09T00:17:01.869Z,100438.71
2017-08-09T00:19:28.344Z,100446.11
2017-08-09T00:21:55.125Z,100442.53
2017-08-09T00:24:21.534Z,100445.47
2017-08-09T00:26:47.868Z,100450.70
2017-08-09T00:29:14.203Z,100450.80
2017-08-09T00:31:40.774Z,100450.42
2017-08-09T00:34:07.162Z,100442.88
2017-08-09T00:36:33.589Z,100448.84
2017-08-09T00:38:59.957Z,100440.63
2017-08-09T00:41:26.303Z,100437.83
2017-08-09T00:43:52.901Z,100439.91
2017-08-09T00:46:19.300Z,100439.80
2017-08-09T00:48:45.698Z,100443.00
2017-08-09T00:51:12.059Z,100437.88
2017-08-09T00:53:38.411Z,100435.94
2017-08-09T00:56:04.771Z,100442.24
2017-08-09T00:58:31.572Z,100446.22
2017-08-09T01:00:57.956Z,100455.94
2017-08-09T01:03:24.866Z,100451.53
2017-08-09T01:05:51.234Z,100457.09
2017-08-09T01:08:17.595Z,100460.74
2017-08-09T01:10:44.104Z,100460.02
2017-08-09T01:13:10.540Z,100468.48
2017-08-09T01:15:36.925Z,100466.91
2017-08-09T01:18:03.298Z,100470.31
2017-08-09T01:20:29.663Z,100471.18
2017-08-09T01:22:56.092Z,100474.67
2017-08-09T01:25:22.427Z,100474.09
2017-08-09T01:27:48.802Z,100467.48
2017-08-09T01:30:15.283Z,100476.64
2017-08-09T01:32:42.332Z,100479.78
2017-08-09T01:35:09.223Z,100478.55
2017-08-09T01:37:35.726Z,100474.81
2017-08-09T01:40:02.154Z,100479.36
2017-08-09T01:42:28.646Z,100484.91
2017-08-09T01:44:55.077Z,100486.23
2017-08-09T01:47:21.461Z,100490.53
2017-08-09T01:49:48.082Z,100481.22
2017-08-09T01:52:14.687Z,100481.43
2017-08-09T01:54:41.241Z,100486.78
2017-08-09T01:57:07.798Z,100492.84
2017-08-09T01:59:34.571Z,100489.49
2017-08-09T02:02:01.217Z,100491.50
2017-08-09T02:04:27.915Z,100493.47
2017-08-09T02:06:54.716Z,100497.07
2017-08-09T02:09:21.289Z,100493.09
2017-08-09T02:11:48.276Z,100487.44
2017-08-09T02:14:15.118Z,100484.84
2017-08-09T02:16:41.921Z,100481.13
2017-08-09T02:19:08.544Z,100481.41
2017-08-09T02:21:35.073Z,100483.06
2017-08-09T02:24:01.471Z,100490.16
2017-08-09T02:26:28.052Z,100492.44
2017-08-09T02:28:54.727Z,100487.66
2017-08-09T02:31:21.600Z,100493.98
2017-08-09T02:33:48.275Z,100500.09
2017-08-09T02:36:14.846Z,100500.65
2017-08-09T02:38:41.505Z,100508.75
2017-08-09T02:41:08.116Z,100517.59
2017-08-09T02:43:35.028Z,100516.52
2017-08-09T02:46:01.710Z,100518.16
2017-08-09T02:48:28.340Z,100517.36
2017-08-09T02:50:55.234Z,100521.38
2017-08-09T02:53:21.578Z,100522.94
2017-08-09T02:55:47.910Z,100528.95
2017-08-09T02:58:14.256Z,100522.17
2017-08-09T03:00:40.635Z,100520.55
2017-08-09T03:03:07.043Z,100524.69
2017-08-09T03:05:33.923Z,100519.89
2017-08-09T03:08:00.276Z,100518.55
2017-08-09T03:10:26.628Z,100522.47
2017-08-09T03:12:53.009Z,100522.83
2017-08-09T03:15:19.440Z,100529.80
2017-08-09T03:17:45.823Z,100535.25
2017-08-09T03:20:12.181Z,100526.47
2017-08-09T03:22:38.578Z,100526.51
2017-08-09T03:25:04.936Z,100526.33
2017-08-09T03:27:31.320Z,100530.34
2017-08-09T03:29:57.713Z,100527.95
2017-08-09T03:32:24.087Z,100534.13
2017-08-09T03:34:50.449Z,100544.59
2017-08-09T03:37:16.845Z,100541.42
2017-08-09T03:39:43.228Z,100547.30
2017-08-09T03:42:09.631Z,100542.76
2017-08-09T03:44:36.007Z,100551.74
2017-08-09T03:47:02.442Z,100550.75
2017-08-09T03:49:28.859Z,100557.94
2017-08-09T03:51:55.274Z,100566.09
2017-08-09T03:54:21.674Z,100572.09
2017-08-09T03:56:48.045Z,100569.78
2017-08-09T03:59:14.418Z,100576.45
2017-08-09T04:01:40.781Z,100577.53
2017-08-09T04:04:07.126Z,100583.52
2017-08-09T04:06:33.513Z,100589.19
2017-08-09T04:08:59.880Z,100593.07
2017-08-09T04:11:26.252Z,100594.11
2017-08-09T04:13:52.648Z,100591.73
2017-08-09T04:16:19.052Z,100594.19
2017-08-09T04:18:45.470Z,100608.91
2017-08-09T04:21:11.864Z,100607.88
2017-08-09T04:23:38.239Z,100617.09
2017-08-09T04:26:04.670Z,100612.03
2017-08-09T04:28:31.026Z,100619.97
2017-08-09T04:30:57.401Z,100619.79
2017-08-09T04:33:23.754Z,100620.80
2017-08-09T04:35:50.129Z,100631.04
2017-08-09T04:38:16.513Z,100624.30
2017-08-09T04:40:42.896Z,100627.09
2017-08-09T04:43:09.263Z,100626.23
2017-08-09T04:45:35.607Z,100623.95
2017-08-09T04:48:02.156Z,100626.06
2017-08-09T04:50:28.507Z,100631.58
2017-08-09T04:52:54.860Z,100630.03
2017-08-09T04:55:21.249Z,100634.03
2017-08-09T04:57:47.634Z,100629.77
2017-08-09T05:00:14.018Z,100636.14
2017-08-09T05:02:40.396Z,100637.25
2017-08-09T05:05:06.804Z,100642.38
2017-08-09T05:07:33.225Z,100649.13
2017-08-09T05:09:59.616Z,100645.96
2017-08-09T05:12:26.007Z,100652.70
2017-08-09T05:14:52.373Z,100656.11
2017-08-09T05:17:18.734Z,100657.58
2017-08-09T05:19:45.097Z,100655.38
2017-08-09T05:22:11.424Z,100659.52
2017-08-09T05:24:37.812Z,100665.45
2017-08-09T05:27:04.188Z,100668.86
2017-08-09T05:29:31.502Z,100669.20
2017-08-09T05:31:57.865Z,100663.27
2017-08-09T05:34:24.621Z,100671.83
2017-08-09T05:36:51.001Z,100674.80
2017-08-09T05:39:17.394Z,100675.28
2017-08-09T05:41:43.779Z,100674.98
2017-08-09T05:44:10.157Z,100676.31
2017-08-09T05:46:36.544Z,100682.38
2017-08-09T05:49:02.914Z,100678.98
2017-08-09T05:51:29.276Z,100679.76
2017-08-09T05:53:55.650Z,100686.94
2017-08-09T05:56:22.007Z,100690.99
2017-08-09T05:58:48.377Z,100687.47
2017-08-09T06:01:14.758Z,100691.90
2017-08-09T06:03:41.165Z,100691.34
2017-08-09T06:06:07.534Z,100697.62
2017-08-09T06:08:33.923Z,100704.64
2017-08-09T06:11:00.298Z,100704.22
2017-08-09T06:13:26.644Z,100700.29
2017-08-09T06:15:53.025Z,100709.38
2017-08-09T06:18:19.441Z,100718.17
2017-08-09T06:20:45.797Z,100720.53
2017-08-09T06:23:12.176Z,100717.94
2017-08-09T06:25:38.579Z,100723.77
2017-08-09T06:28:04.983Z,100730.12
2017-08-09T06:30:31.348Z,100733.59
2017-08-09T06:32:57.747Z,100725.70
2017-08-09T06:35:24.172Z,100727.46
2017-08-09T06:37:50.537Z,100732.85
2017-08-09T06:40:16.912Z,100738.01
2017-08-09T06:42:43.283Z,100740.43
2017-08-09T06:45:09.646Z,100741.03
2017-08-09T06:47:36.026Z,100740.86
2017-08-09T06:50:02.445Z,100733.36
2017-08-09T06:52:28.815Z,100736.95
2017-08-09T06:54:55.207Z,100730.88
2017-08-09T06:57:21.593Z,100734.63
2017-08-09T06:59:47.955Z,100735.83
2017-08-09T07:02:14.323Z,100739.53
2017-08-09T07:04:40.707Z,100739.74
2017-08-09T07:07:07.111Z,100740.22
2017-08-09T07:09:33.490Z,100738.58
2017-08-09T07:11:59.864Z,100735.05
2017-08-09T07:14:26.251Z,100735.61
2017-08-09T07:16:52.617Z,100729.61
2017-08-09T07:19:19.002Z,100742.00
2017-08-09T07:21:45.396Z,100736.48
2017-08-09T07:24:11.786Z,100741.20
2017-08-09T07:26:38.170Z,100750.24
2017-08-09T07:29:04.535Z,100753.14
2017-08-09T07:31:30.931Z,100759.05
2017-08-09T07:33:57.322Z,100765.44
2017-08-09T07:36:23.722Z,100767.72
2017-08-09T07:38:50.078Z,100765.34
2017-08-09T07:41:16.423Z,100771.12
2017-08-09T07:43:42.832Z,100769.43
2017-08-09T07:46:09.198Z,100769.61
2017-08-09T07:48:35.586Z,100777.61
2017-08-09T07:51:02.447Z,100777.54
2017-08-09T07:53:28.836Z,100781.59
2017-08-09T07:55:55.763Z,100779.55
2017-08-09T07:58:22.120Z,100780.72
2017-08-09T08:00:48.515Z,100782.86
2017-08-09T08:03:14.899Z,100779.84
2017-08-09T08:05:41.269Z,100787.34
2017-08-09T08:08:07.662Z,100791.03
2017-08-09T08:10:34.051Z,100790.88
2017-08-09T08:13:00.420Z,100794.59
2017-08-09T08:15:26.800Z,100798.36
2017-08-09T08:17:53.166Z,100797.42
2017-08-09T08:20:19.545Z,100795.59
2017-08-09T08:22:45.960Z,100803.44
2017-08-09T08:25:12.298Z,100804.34
2017-08-09T08:27:38.650Z,100805.12
2017-08-09T08:30:05.036Z,100808.87
2017-08-09T08:32:31.509Z,100801.35
2017-08-09T08:34:57.872Z,100802.46
2017-08-09T08:37:24.270Z,100802.16
2017-08-09T08:39:50.669Z,100811.75
2017-08-09T08:42:17.038Z,100803.78
2017-08-09T08:44:43.425Z,100801.48
2017-08-09T08:47:09.809Z,100806.16
2017-08-09T08:49:36.220Z,100816.61
2017-08-09T08:52:02.600Z,100812.38
2017-08-09T08:54:29.012Z,100810.33
2017-08-09T08:56:55.421Z,100808.00
2017-08-09T08:59:21.794Z,100813.67
2017-08-09T09:01:48.173Z,100809.55
2017-08-09T09:04:14.573Z,100811.23
2017-08-09T09:06:40.953Z,100812.03
2017-08-09T09:09:07.315Z,100807.54
2017-08-09T09:11:33.711Z,100815.44
2017-08-09T09:14:00.108Z,100817.89
2017-08-09T09:16:26.488Z,100818.66
2017-08-09T09:18:52.866Z,100814.44
2017-08-09T09:21:19.219Z,100817.45
2017-08-09T09:23:45.667Z,100819.59
2017-08-09T09:26:12.094Z,100831.80
2017-08-09T09:28:38.468Z,100827.30
2017-08-09T09:31:04.871Z,100836.57
2017-08-09T09:33:31.249Z,100838.70
2017-08-09T09:35:57.625Z,100836.22
2017-08-09T09:38:24.033Z,100829.91
2017-08-09T09:40:50.461Z,100835.65
2017-08-09T09:43:16.841Z,100837.34
2017-08-09T09:45:43.242Z,100834.70
2017-08-09T09:48:09.646Z,100841.13
2017-08-09T09:50:36.070Z,100840.02
2017-08-09T09:53:02.455Z,100843.03
2017-08-09T09:55:28.842Z,100843.05
2017-08-09T09:57:55.234Z,100845.09
2017-08-09T10:00:21.608Z,100846.61
2017-08-09T10:02:47.971Z,100843.37
2017-08-09T10:05:14.353Z,100845.02
2017-08-09T10:07:41.110Z,100844.87
2017-08-09T10:10:07.497Z,100854.63
2017-08-09T10:12:33.858Z,100856.97
2017-08-09T10:15:00.241Z,100861.19
2017-08-09T10:17:26.618Z,100857.85
2017-08-09T10:19:52.983Z,100858.20
2017-08-09T10:22:19.363Z,100862.64
2017-08-09T10:24:45.749Z,100870.85
2017-08-09T10:27:12.121Z,100861.44
2017-08-09T10:29:38.512Z,100869.34
2017-08-09T10:32:04.893Z,100873.44
2017-08-09T10:34:31.285Z,100879.80
2017-08-09T10:36:58.528Z,100866.25
2017-08-09T10:39:24.921Z,100873.66
2017-08-09T10:41:51.308Z,100877.30
2017-08-09T10:44:18.053Z,100874.72
2017-08-09T10:46:44.461Z,100873.38
2017-08-09T10:49:10.849Z,100871.09
2017-08-09T10:51:37.285Z,100871.30
2017-08-09T10:54:03.667Z,100875.47
2017-08-09T10:56:30.043Z,100876.11
2017-08-09T10:58:56.425Z,100874.95
2017-08-09T11:01:22.832Z,100880.39
2017-08-09T11:03:49.284Z,100881.14
2017-08-09T11:06:15.692Z,100879.73
2017-08-09T11:08:42.100Z,100873.56
2017-08-09T11:11:09.019Z,100873.11
2017-08-09T11:13:35.403Z,100872.99
2017-08-09T11:16:01.784Z,100865.78
2017-08-09T11:18:28.186Z,100867.45
2017-08-09T11:20:54.622Z,100866.59
2017-08-09T11:23:20.995Z,100858.66
2017-08-09T11:25:47.411Z,100853.72
2017-08-09T11:28:13.787Z,100864.41
2017-08-09T11:30:40.163Z,100868.81
2017-08-09T11:33:06.545Z,100871.08
2017-08-09T11:35:32.952Z,100859.93
2017-08-09T11:37:59.318Z,100863.94
2017-08-09T11:40:25.708Z,100861.39
2017-08-09T11:42:52.122Z,100867.30
2017-08-09T11:45:18.494Z,100869.63
2017-08-09T11:47:44.867Z,100871.08
2017-08-09T11:50:11.268Z,100876.53
2017-08-09T11:52:37.708Z,100873.20
2017-08-09T11:55:04.077Z,100866.94
2017-08-09T11:57:30.476Z,100865.02
2017-08-09T11:59:56.875Z,100854.92
2017-08-09T12:02:24.709Z,100863.23
2017-08-09T12:04:51.104Z,100865.13
2017-08-09T12:07:17.792Z,100863.72
2017-08-09T12:09:45.817Z,100868.44
2017-08-09T12:12:12.191Z,100867.63
2017-08-09T12:14:38.703Z,100865.85
2017-08-09T12:17:05.095Z,100864.30
2017-08-09T12:19:31.508Z,100859.77
2017-08-09T12:21:57.940Z,100863.02
2017-08-09T12:24:24.310Z,100862.48
2017-08-09T12:26:50.690Z,100865.66
2017-08-09T12:29:17.047Z,100867.33
2017-08-09T12:31:43.428Z,100863.45
2017-08-09T12:34:09.972Z,100866.87
2017-08-09T12:36:36.367Z,100866.07
2017-08-09T12:39:02.899Z,100867.61
2017-08-09T12:41:29.269Z,100866.75
2017-08-09T12:43:55.646Z,100871.75
2017-08-09T12:46:22.020Z,100866.56
2017-08-09T12:48:48.445Z,100869.64
2017-08-09T12:51:14.850Z,100867.59
2017-08-09T12:53:41.241Z,100872.50
2017-08-09T12:56:07.605Z,100876.02
2017-08-09T12:58:33.987Z,100878.53
2017-08-09T13:01:00.393Z,100871.89
2017-08-09T13:03:26.794Z,100870.56
2017-08-09T13:05:53.207Z,100875.67
2017-08-09T13:08:19.606Z,100877.34
2017-08-09T13:10:46.001Z,100863.52
2017-08-09T13:13:12.376Z,100869.68
2017-08-09T13:15:38.819Z,100869.28
2017-08-09T13:18:05.219Z,100874.08
2017-08-09T13:20:31.621Z,100864.80
2017-08-09T13:22:58.017Z,100860.14
2017-08-09T13:25:24.424Z,100873.20
2017-08-09T13:27:50.844Z,100867.55
2017-08-09T13:30:17.234Z,100867.80
2017-08-09T13:32:43.653Z,100874.64
2017-08-09T13:35:10.063Z,100874.66
2017-08-09T13:37:36.436Z,100872.37
2017-08-09T13:40:02.806Z,100875.89
2017-08-09T13:42:29.220Z,100876.39
2017-08-09T13:44:55.587Z,100880.59
2017-08-09T13:47:22.024Z,100871.77
2017-08-09T13:49:48.397Z,100879.77
2017-08-09T13:52:14.766Z,100870.83
2017-08-09T13:54:41.125Z,100866.06
2017-08-09T13:57:07.580Z,100855.23
2017-08-09T13:59:33.983Z,100855.97
2017-08-09T14:02:00.352Z,100856.08
2017-08-09T14:04:26.774Z,100855.59
2017-08-09T14:06:53.149Z,100867.88
2017-08-09T14:09:19.574Z,100864.19
2017-08-09T14:11:45.993Z,100863.41
2017-08-09T14:14:12.384Z,100859.94
2017-08-09T14:16:38.750Z,100864.09
2017-08-09T14:19:05.132Z,100864.02
2017-08-09T14:21:31.506Z,100862.75
2017-08-09T14:23:57.877Z,100863.28
2017-08-09T14:26:24.736Z,100865.30
2017-08-09T14:28:51.094Z,100864.51
2017-08-09T14:31:17.455Z,100863.00
2017-08-09T14:33:43.844Z,100866.41
2017-08-09T14:36:10.225Z,100869.58
2017-08-09T14:38:36.607Z,100871.67
2017-08-09T14:41:02.971Z,100873.24
2017-08-09T14:43:29.351Z,100881.53
2017-08-09T14:45:55.787Z,100879.59
2017-08-09T14:48:22.169Z,100869.86
2017-08-09T14:50:48.555Z,100882.11
2017-08-09T14:53:14.975Z,100879.67
2017-08-09T14:55:41.388Z,100876.80
2017-08-09T14:58:07.776Z,100876.32
2017-08-09T15:00:34.146Z,100874.59
2017-08-09T15:03:00.568Z,100873.22
2017-08-09T15:05:26.994Z,100888.41
2017-08-09T15:07:53.395Z,100882.21
2017-08-09T15:10:19.789Z,100875.97
2017-08-09T15:12:46.205Z,100877.55
2017-08-09T15:15:12.586Z,100878.02
2017-08-09T15:17:38.979Z,100877.48
2017-08-09T15:20:05.341Z,100875.25
2017-08-09T15:22:31.756Z,100872.05
2017-08-09T15:24:58.114Z,100877.37
2017-08-09T15:27:24.482Z,100876.69
2017-08-09T15:29:50.870Z,100884.20
2017-08-09T15:32:17.243Z,100879.48
2017-08-09T15:34:43.633Z,100883.21
2017-08-09T15:37:10.077Z,100883.98
2017-08-09T15:39:36.479Z,100887.48
2017-08-09T15:42:02.916Z,100891.92
2017-08-09T15:44:29.304Z,100893.34
2017-08-09T15:46:55.684Z,100893.84
2017-08-09T15:49:22.073Z,100894.06
2017-08-09T15:51:48.490Z,100883.38
2017-08-09T15:54:14.876Z,100884.37
2017-08-09T15:56:41.281Z,100886.22
2017-08-09T15:59:07.674Z,100885.56
2017-08-09T16:01:34.063Z,100881.12
2017-08-09T16:04:00.478Z,100887.30
2017-08-09T16:06:26.866Z,100880.92
2017-08-09T16:08:53.263Z,100883.47
2017-08-09T16:11:19.643Z,100880.52
2017-08-09T16:13:46.037Z,100886.31
2017-08-09T16:16:12.654Z,100885.97
2017-08-09T16:18:39.041Z,100887.97
2017-08-09T16:21:05.443Z,100891.81
2017-08-09T16:23:31.808Z,100890.63
2017-08-09T16:25:58.194Z,100892.60
2017-08-09T16:28:24.592Z,100895.74
2017-08-09T16:30:50.992Z,100896.98
2017-08-09T16:33:17.452Z,100898.41
2017-08-09T16:35:43.858Z,100899.91
2017-08-09T16:38:10.258Z,100899.40
2017-08-09T16:40:36.877Z,100901.25
2017-08-09T16:43:03.792Z,100901.99
2017-08-09T16:45:30.389Z,100900.78
2017-08-09T16:47:57.027Z,100901.56
2017-08-09T16:50:23.417Z,100892.90
2017-08-09T16:52:49.781Z,100887.17
2017-08-09T16:55:16.149Z,100889.14
2017-08-09T16:57:42.840Z,100892.45
2017-08-09T17:00:09.240Z,100889.11
2017-08-09T17:02:35.586Z,100890.44
2017-08-09T17:05:02.067Z,100882.45
2017-08-09T17:07:28.464Z,100881.28
2017-08-09T17:09:54.875Z,100881.66
2017-08-09T17:12:21.247Z,100883.53
2017-08-09T17:14:47.635Z,100882.20
2017-08-09T17:17:14.496Z,100884.37
2017-08-09T17:19:40.942Z,100891.91
2017-08-09T17:22:07.298Z,100896.81
2017-08-09T17:24:33.647Z,100899.56
2017-08-09T17:27:00.312Z,100903.73
2017-08-09T17:29:26.705Z,100902.89
2017-08-09T17:31:53.079Z,100909.30
2017-08-09T17:34:19.476Z,100913.59
2017-08-09T17:36:45.891Z,100908.89
2017-08-09T17:39:12.273Z,100922.61
2017-08-09T17:41:38.715Z,100919.64
2017-08-09T17:44:05.078Z,100920.80
2017-08-09T17:46:31.445Z,100923.77
2017-08-09T17:48:57.855Z,100924.28
2017-08-09T17:51:24.210Z,100927.12
2017-08-09T17:53:50.889Z,100925.47
2017-08-09T17:56:17.239Z,100919.80
2017-08-09T17:58:43.625Z,100929.63
2017-08-09T18:01:10.208Z,100929.27
2017-08-09T18:03:36.778Z,100930.72
2017-08-09T18:06:03.197Z,100930.92
2017-08-09T18:08:29.655Z,100934.03
2017-08-09T18:10:56.080Z,100931.25
2017-08-09T18:13:22.485Z,100936.95
2017-08-09T18:15:48.871Z,100947.14
2017-08-09T18:18:15.231Z,100947.86
2017-08-09T18:20:41.654Z,100946.67
2017-08-09T18:23:08.064Z,100947.23
2017-08-09T18:25:34.422Z,100946.95
2017-08-09T18:28:00.840Z,100945.55
2017-08-09T18:30:27.435Z,100941.35
2017-08-09T18:32:54.255Z,100943.08
2017-08-09T18:35:20.676Z,100946.58
2017-08-09T18:37:47.213Z,100944.05
2017-08-09T18:40:13.645Z,100941.41
2017-08-09T18:42:40.287Z,100942.86
2017-08-09T18:45:06.950Z,100944.98
2017-08-09T18:47:33.581Z,100950.73
2017-08-09T18:50:00.223Z,100947.92
2017-08-09T18:52:27.042Z,100952.52
2017-08-09T18:54:53.450Z,100959.63
2017-08-09T18:57:19.858Z,100962.09
2017-08-09T18:59:46.278Z,100966.28
2017-08-09T19:02:12.684Z,100965.86
2017-08-09T19:04:39.084Z,100971.05
2017-08-09T19:07:05.451Z,100974.30
2017-08-09T19:09:31.855Z,100983.44
2017-08-09T19:11:58.264Z,100983.02
2017-08-09T19:14:24.685Z,100988.36
2017-08-09T19:16:51.097Z,100990.16
2017-08-09T19:19:18.627Z,100985.34
2017-08-09T19:21:45.083Z,100988.70
2017-08-09T19:24:11.493Z,100984.42
2017-08-09T19:26:37.880Z,100986.37
2017-08-09T19:29:04.317Z,100988.16
2017-08-09T19:31:30.888Z,100998.67
2017-08-09T19:33:57.269Z,100994.42
2017-08-09T19:36:23.647Z,100998.30
2017-08-09T19:38:50.014Z,100992.17
2017-08-09T19:41:16.438Z,100995.89
2017-08-09T19:43:42.835Z,101002.53
2017-08-09T19:46:09.429Z,100996.81
2017-08-09T19:48:35.850Z,100993.83
2017-08-09T19:51:02.243Z,100998.30
2017-08-09T19:53:28.646Z,100995.06
2017-08-09T19:55:55.061Z,101002.70
2017-08-09T19:58:21.519Z,101006.64
2017-08-09T20:00:47.888Z,101007.77
2017-08-09T20:03:14.581Z,101013.37
2017-08-09T20:05:41.021Z,101018.12
2017-08-09T20:08:07.437Z,101017.63
2017-08-09T20:10:33.820Z,101025.27
2017-08-09T20:13:00.162Z,101020.59
2017-08-09T20:15:26.520Z,101024.69
2017-08-09T20:17:53.381Z,101027.52
2017-08-09T20:20:19.837Z,101023.35
2017-08-09T20:22:46.222Z,101026.52
2017-08-09T20:25:12.609Z,101031.20
2017-08-09T20:27:39.025Z,101038.92
2017-08-09T20:30:05.525Z,101037.28
2017-08-09T20:32:31.916Z,101031.77
2017-08-09T20:34:58.440Z,101031.91
2017-08-09T20:37:24.798Z,101032.08
2017-08-09T20:39:51.201Z,101036.25
2017-08-09T20:42:17.747Z,101028.80
2017-08-09T20:44:44.104Z,101032.08
2017-08-09T20:47:10.488Z,101040.14
2017-08-09T20:49:36.842Z,101038.59
2017-08-09T20:52:03.225Z,101039.25
2017-08-09T20:54:29.636Z,101037.33
2017-08-09T20:56:56.258Z,101041.59
2017-08-09T20:59:22.627Z,101045.62
2017-08-09T21:01:50.018Z,101051.38
2017-08-09T21:04:16.392Z,101050.53
2017-08-09T21:06:42.743Z,101051.80
2017-08-09T21:09:09.110Z,101044.91
2017-08-09T21:11:35.502Z,101054.13
2017-08-09T21:14:01.848Z,101055.15
2017-08-09T21:16:28.221Z,101061.92
2017-08-09T21:18:54.622Z,101058.48
2017-08-09T21:21:20.977Z,101063.94
2017-08-09T21:23:47.349Z,101057.77
2017-08-09T21:26:13.713Z,101057.24
2017-08-09T21:28:40.084Z,101069.61
2017-08-09T21:31:06.463Z,101077.27
2017-08-09T21:33:32.908Z,101076.70
2017-08-09T21:35:59.263Z,101074.77
2017-08-09T21:38:25.628Z,101088.88
2017-08-09T21:40:52.320Z,101080.73
2017-08-09T21:43:18.726Z,101065.86
2017-08-09T21:45:45.125Z,101065.48
2017-08-09T21:48:11.471Z,101070.00
2017-08-09T21:50:37.823Z,101069.83
2017-08-09T21:53:04.189Z,101072.25
2017-08-09T21:55:30.576Z,101070.45
2017-08-09T21:57:56.944Z,101075.09
2017-08-09T22:00:23.297Z,101078.19
2017-08-09T22:02:53.281Z,101074.77
2017-08-09T22:05:22.361Z,101081.64
2017-08-09T22:07:48.917Z,101088.14
2017-08-09T22:10:15.276Z,101092.94
2017-08-09T22:12:41.639Z,101091.14
2017-08-09T22:15:08.005Z,101090.08
2017-08-09T22:17:34.390Z,101080.81
2017-08-09T22:20:00.756Z,101080.52
2017-08-09T22:22:27.102Z,101078.65
2017-08-09T22:24:53.439Z,101084.70
2017-08-09T22:27:19.831Z,101086.75
2017-08-09T22:29:46.208Z,101077.84
2017-08-09T22:32:12.546Z,101080.39
2017-08-09T22:34:38.923Z,101088.20
2017-08-09T22:37:05.261Z,101092.59
2017-08-09T22:39:31.601Z,101096.19
2017-08-09T22:41:57.984Z,101091.36
2017-08-09T22:44:24.345Z,101094.27
2017-08-09T22:46:50.715Z,101086.58
2017-08-09T22:49:17.090Z,101088.72
2017-08-09T22:51:43.429Z,101078.97
2017-08-09T22:54:09.802Z,101076.70
2017-08-09T22:56:36.169Z,101087.53
2017-08-09T22:59:02.529Z,101086.71
2017-08-09T23:01:28.889Z,101089.95
2017-08-09T23:03:55.246Z,101085.80
2017-08-09T23:06:21.600Z,101084.73
2017-08-09T23:08:47.980Z,101075.43
2017-08-09T23:11:14.417Z,101064.43
2017-08-09T23:13:40.764Z,101068.89
2017-08-09T23:16:07.135Z,101059.44
2017-08-09T23:18:33.524Z,101063.99
2017-08-09T23:20:59.887Z,101063.09
2017-08-09T23:23:26.298Z,101070.98
2017-08-09T23:25:52.640Z,101075.27
2017-08-09T23:28:18.993Z,101073.91
2017-08-09T23:30:45.373Z,101067.77
2017-08-09T23:33:11.722Z,101065.45
2017-08-09T23:35:38.077Z,101078.28
2017-08-09T23:38:04.441Z,101084.13
2017-08-09T23:40:30.771Z,101091.27
2017-08-09T23:42:57.140Z,101091.01
2017-08-09T23:45:23.523Z,101096.73
2017-08-09T23:47:49.915Z,101095.42
2017-08-09T23:50:16.270Z,101095.36
2017-08-09T23:52:42.634Z,101084.43
2017-08-09T23:55:08.997Z,101081.92
2017-08-09T23:57:35.374Z,101098.34
